Birk — V2BF5 — position and weather

sailwx.info

Track history (hours):
 
Tides and Currents Weather Stations Pressure Air Temp Water Temp Dewpoint Dewpoint Depression Visibility Wind Speed Wind Dir Waves Ship Positions

Birk

Last reported at 2017-Jan-11 17:32 UTC. Time now 2017-Jan-16 11:06 UTC.
Position N 10°22' W 061°53'.

Length 132 m; draft 6.1 m.

Type: Ship. MMSI: 304535000.

Date/timePositionNaut miles runAvg speedWind from/ knotsBaromVisibWave heightAir tempDewpointWater temp
2017-Jan-11 17:32N 10°22' W 061°53'1111.5
2017-Jan-11 16:33N 10°30' W 061°45'9 9.5
2017-Jan-11 15:33N 10°37' W 061°38'7 7.3
2017-Jan-11 14:33N 10°39' W 061°31'0 0.0
2017-Jan-11 13:33N 10°39' W 061°31'0 0.0
2017-Jan-11 12:30N 10°39' W 061°31'0 0.1
2017-Jan-11 11:28N 10°39' W 061°32'0 0.1
2017-Jan-11 10:32N 10°39' W 061°31'0 0.0
2017-Jan-11 09:33N 10°39' W 061°31'0 0.0
2017-Jan-11 08:33N 10°39' W 061°31'0 0.0
2017-Jan-11 07:26N 10°39' W 061°31'0 0.0
2017-Jan-11 06:32N 10°39' W 061°31'0 0.0
2017-Jan-11 05:33N 10°39' W 061°31'0 0.0
2017-Jan-11 04:32N 10°39' W 061°31'0 0.0
2017-Jan-11 03:33N 10°39' W 061°31'0 0.0
2017-Jan-11 02:32N 10°39' W 061°31'0 0.0
2017-Jan-11 01:33N 10°39' W 061°31'0 0.0
2017-Jan-11 00:32N 10°39' W 061°31'0 0.0
2017-Jan-10 23:33N 10°39' W 061°31'0 0.0
2017-Jan-10 22:32N 10°39' W 061°31'0 0.0
2017-Jan-10 21:31N 10°39' W 061°31'0 0.0
2017-Jan-10 20:29N 10°39' W 061°31'0 0.0
2017-Jan-10 19:33N 10°39' W 061°31'0 0.0
2017-Jan-10 18:32N 10°39' W 061°31'0 0.0
2017-Jan-10 17:33N 10°39' W 061°31'5 4.9
2017-Jan-10 16:33N 10°37' W 061°36'1110.7
2017-Jan-10 15:33N 10°30' W 061°44'1010.0
2017-Jan-10 14:33N 10°23' W 061°51'  
2017-Jan-04 20:09N 10°21' W 061°53'611.0
2017-Jan-04 19:33N 10°26' W 061°49'1110.7
2017-Jan-04 18:33N 10°34' W 061°41'1010.1
2017-Jan-04 17:33N 10°39' W 061°32'1 0.8
2017-Jan-04 16:32N 10°39' W 061°31'0 0.0
2017-Jan-04 15:32N 10°39' W 061°31'0 0.0
2017-Jan-04 14:32N 10°39' W 061°31'0 0.0
2017-Jan-04 13:32N 10°39' W 061°31'0 0.0
2017-Jan-04 12:29N 10°39' W 061°31'0 0.0
2017-Jan-04 11:33N 10°39' W 061°31'1 1.4
2017-Jan-04 10:34N 10°39' W 061°33'5 5.1
2017-Jan-04 09:33N 10°38' W 061°38'0 0.1
2017-Jan-04 08:28N 10°38' W 061°38'0 0.0
2017-Jan-04 07:30N 10°38' W 061°38'0 0.1
2017-Jan-04 06:32N 10°38' W 061°38'0 0.1
2017-Jan-04 05:32N 10°38' W 061°38'0 0.0
2017-Jan-04 04:31N 10°38' W 061°38'0 0.0
2017-Jan-04 03:31N 10°38' W 061°38'0 0.0
2017-Jan-04 02:31N 10°38' W 061°38'0 0.0
2017-Jan-04 01:31N 10°38' W 061°38'0 0.1
2017-Jan-04 00:32N 10°38' W 061°38'0 0.0
2017-Jan-03 23:32N 10°38' W 061°38'0 0.0
2017-Jan-03 22:33N 10°38' W 061°38'0 0.0
2017-Jan-03 21:33N 10°38' W 061°38'0 0.0
2017-Jan-03 20:33N 10°38' W 061°38'0 0.0
2017-Jan-03 19:33N 10°38' W 061°38'0 0.0
2017-Jan-03 18:32N 10°38' W 061°38'0 0.1
2017-Jan-03 17:24N 10°38' W 061°38'0 0.1
2017-Jan-03 16:33N 10°38' W 061°38'0 0.0
2017-Jan-03 15:27N 10°38' W 061°38'0 0.1
2017-Jan-03 14:32N 10°38' W 061°38'0 0.0
2017-Jan-03 13:33N 10°38' W 061°38'0 0.1
2017-Jan-03 12:32N 10°38' W 061°38'0 0.0
2017-Jan-03 11:31N 10°38' W 061°38'0 0.0
2017-Jan-03 10:32N 10°38' W 061°38'0 0.0
2017-Jan-03 09:31N 10°38' W 061°38'0 0.0
2017-Jan-03 08:32N 10°38' W 061°38'0 0.0
2017-Jan-03 07:33N 10°38' W 061°38'0 0.0
2017-Jan-03 06:33N 10°38' W 061°38'0 0.1
2017-Jan-03 05:33N 10°38' W 061°38'0 0.0
2017-Jan-03 04:32N 10°38' W 061°38'0 0.0
2017-Jan-03 03:32N 10°38' W 061°38'0 0.0
2017-Jan-03 02:32N 10°38' W 061°38'0 0.0
2017-Jan-03 01:31N 10°38' W 061°38'0 0.0
2017-Jan-03 00:31N 10°38' W 061°38'0 0.1
2017-Jan-02 23:33N 10°38' W 061°38'0 0.1
2017-Jan-02 22:31N 10°38' W 061°38'0 0.0
2017-Jan-02 21:32N 10°38' W 061°38'0 0.1
2017-Jan-02 20:33N 10°38' W 061°38'0 0.0
2017-Jan-02 19:31N 10°38' W 061°38'0 0.0
2017-Jan-02 18:33N 10°38' W 061°38'0 0.0
2017-Jan-02 17:33N 10°38' W 061°38'0 0.0
2017-Jan-02 16:32N 10°38' W 061°38'0 0.1
2017-Jan-02 15:33N 10°38' W 061°38'0 0.0
2017-Jan-02 14:31N 10°38' W 061°38'0 0.0
2017-Jan-02 13:33N 10°38' W 061°38'0 0.1
2017-Jan-02 12:33N 10°38' W 061°38'0 0.1
2017-Jan-02 11:33N 10°38' W 061°38'0 0.0
2017-Jan-02 10:32N 10°38' W 061°38'0 0.0
2017-Jan-02 09:31N 10°38' W 061°38'0 0.0
2017-Jan-02 08:32N 10°38' W 061°38'0 0.0
2017-Jan-02 07:32N 10°38' W 061°38'0 0.1
2017-Jan-02 06:28N 10°38' W 061°38'0 0.0
2017-Jan-02 05:33N 10°38' W 061°38'0 0.1
2017-Jan-02 04:33N 10°38' W 061°38'0 0.1
2017-Jan-02 03:31N 10°38' W 061°38'0 0.0
2017-Jan-02 02:31N 10°38' W 061°38'0 0.0
2017-Jan-02 01:32N 10°38' W 061°38'0 0.0
2017-Jan-02 00:31N 10°38' W 061°38'0 0.1
2017-Jan-01 23:31N 10°38' W 061°38'0 0.0
2017-Jan-01 22:32N 10°38' W 061°38'0 0.1
2017-Jan-01 21:28N 10°38' W 061°38'0 0.0
2017-Jan-01 20:31N 10°38' W 061°38'0 0.0
2017-Jan-01 19:30N 10°38' W 061°38'0 0.0
2017-Jan-01 18:32N 10°38' W 061°38'  
Track history (hours):
 
Tides and Currents Weather Stations Pressure Air Temp Water Temp Dewpoint Dewpoint Depression Visibility Wind Speed Wind Dir Waves Ship Positions

Birk

Last reported at 2017-Jan-11 17:32 UTC. Time now 2017-Jan-16 11:06 UTC.
Position N 10°22' W 061°53'.

Length 132 m; draft 6.1 m.

Type: Ship. MMSI: 304535000.

Date/timePositionNaut miles runAvg speedWind from/ knotsBaromVisibWave heightAir tempDewpointWater temp
2017-Jan-11 17:32N 10°22' W 061°53'1111.5
2017-Jan-11 16:33N 10°30' W 061°45'9 9.5
2017-Jan-11 15:33N 10°37' W 061°38'7 7.3
2017-Jan-11 14:33N 10°39' W 061°31'0 0.0
2017-Jan-11 13:33N 10°39' W 061°31'0 0.0
2017-Jan-11 12:30N 10°39' W 061°31'0 0.1
2017-Jan-11 11:28N 10°39' W 061°32'0 0.1
2017-Jan-11 10:32N 10°39' W 061°31'0 0.0
2017-Jan-11 09:33N 10°39' W 061°31'0 0.0
2017-Jan-11 08:33N 10°39' W 061°31'0 0.0
2017-Jan-11 07:26N 10°39' W 061°31'0 0.0
2017-Jan-11 06:32N 10°39' W 061°31'0 0.0
2017-Jan-11 05:33N 10°39' W 061°31'0 0.0
2017-Jan-11 04:32N 10°39' W 061°31'0 0.0
2017-Jan-11 03:33N 10°39' W 061°31'0 0.0
2017-Jan-11 02:32N 10°39' W 061°31'0 0.0
2017-Jan-11 01:33N 10°39' W 061°31'0 0.0
2017-Jan-11 00:32N 10°39' W 061°31'0 0.0
2017-Jan-10 23:33N 10°39' W 061°31'0 0.0
2017-Jan-10 22:32N 10°39' W 061°31'0 0.0
2017-Jan-10 21:31N 10°39' W 061°31'0 0.0
2017-Jan-10 20:29N 10°39' W 061°31'0 0.0
2017-Jan-10 19:33N 10°39' W 061°31'0 0.0
2017-Jan-10 18:32N 10°39' W 061°31'0 0.0
2017-Jan-10 17:33N 10°39' W 061°31'5 4.9
2017-Jan-10 16:33N 10°37' W 061°36'1110.7
2017-Jan-10 15:33N 10°30' W 061°44'1010.0
2017-Jan-10 14:33N 10°23' W 061°51'  
2017-Jan-04 20:09N 10°21' W 061°53'611.0
2017-Jan-04 19:33N 10°26' W 061°49'1110.7
2017-Jan-04 18:33N 10°34' W 061°41'1010.1
2017-Jan-04 17:33N 10°39' W 061°32'1 0.8
2017-Jan-04 16:32N 10°39' W 061°31'0 0.0
2017-Jan-04 15:32N 10°39' W 061°31'0 0.0
2017-Jan-04 14:32N 10°39' W 061°31'0 0.0
2017-Jan-04 13:32N 10°39' W 061°31'0 0.0
2017-Jan-04 12:29N 10°39' W 061°31'0 0.0
2017-Jan-04 11:33N 10°39' W 061°31'1 1.4
2017-Jan-04 10:34N 10°39' W 061°33'5 5.1
2017-Jan-04 09:33N 10°38' W 061°38'0 0.1
2017-Jan-04 08:28N 10°38' W 061°38'0 0.0
2017-Jan-04 07:30N 10°38' W 061°38'0 0.1
2017-Jan-04 06:32N 10°38' W 061°38'0 0.1
2017-Jan-04 05:32N 10°38' W 061°38'0 0.0
2017-Jan-04 04:31N 10°38' W 061°38'0 0.0
2017-Jan-04 03:31N 10°38' W 061°38'0 0.0
2017-Jan-04 02:31N 10°38' W 061°38'0 0.0
2017-Jan-04 01:31N 10°38' W 061°38'0 0.1
2017-Jan-04 00:32N 10°38' W 061°38'0 0.0
2017-Jan-03 23:32N 10°38' W 061°38'0 0.0
2017-Jan-03 22:33N 10°38' W 061°38'0 0.0
2017-Jan-03 21:33N 10°38' W 061°38'0 0.0
2017-Jan-03 20:33N 10°38' W 061°38'0 0.0
2017-Jan-03 19:33N 10°38' W 061°38'0 0.0
2017-Jan-03 18:32N 10°38' W 061°38'0 0.1
2017-Jan-03 17:24N 10°38' W 061°38'0 0.1
2017-Jan-03 16:33N 10°38' W 061°38'0 0.0
2017-Jan-03 15:27N 10°38' W 061°38'0 0.1
2017-Jan-03 14:32N 10°38' W 061°38'0 0.0
2017-Jan-03 13:33N 10°38' W 061°38'0 0.1
2017-Jan-03 12:32N 10°38' W 061°38'0 0.0
2017-Jan-03 11:31N 10°38' W 061°38'0 0.0
2017-Jan-03 10:32N 10°38' W 061°38'0 0.0
2017-Jan-03 09:31N 10°38' W 061°38'0 0.0
2017-Jan-03 08:32N 10°38' W 061°38'0 0.0
2017-Jan-03 07:33N 10°38' W 061°38'0 0.0
2017-Jan-03 06:33N 10°38' W 061°38'0 0.1
2017-Jan-03 05:33N 10°38' W 061°38'0 0.0
2017-Jan-03 04:32N 10°38' W 061°38'0 0.0
2017-Jan-03 03:32N 10°38' W 061°38'0 0.0
2017-Jan-03 02:32N 10°38' W 061°38'0 0.0
2017-Jan-03 01:31N 10°38' W 061°38'0 0.0
2017-Jan-03 00:31N 10°38' W 061°38'0 0.1
2017-Jan-02 23:33N 10°38' W 061°38'0 0.1
2017-Jan-02 22:31N 10°38' W 061°38'0 0.0
2017-Jan-02 21:32N 10°38' W 061°38'0 0.1
2017-Jan-02 20:33N 10°38' W 061°38'0 0.0
2017-Jan-02 19:31N 10°38' W 061°38'0 0.0
2017-Jan-02 18:33N 10°38' W 061°38'0 0.0
2017-Jan-02 17:33N 10°38' W 061°38'0 0.0
2017-Jan-02 16:32N 10°38' W 061°38'0 0.1
2017-Jan-02 15:33N 10°38' W 061°38'0 0.0
2017-Jan-02 14:31N 10°38' W 061°38'0 0.0
2017-Jan-02 13:33N 10°38' W 061°38'0 0.1
2017-Jan-02 12:33N 10°38' W 061°38'0 0.1
2017-Jan-02 11:33N 10°38' W 061°38'0 0.0
2017-Jan-02 10:32N 10°38' W 061°38'0 0.0
2017-Jan-02 09:31N 10°38' W 061°38'0 0.0
2017-Jan-02 08:32N 10°38' W 061°38'0 0.0
2017-Jan-02 07:32N 10°38' W 061°38'0 0.1
2017-Jan-02 06:28N 10°38' W 061°38'0 0.0
2017-Jan-02 05:33N 10°38' W 061°38'0 0.1
2017-Jan-02 04:33N 10°38' W 061°38'0 0.1
2017-Jan-02 03:31N 10°38' W 061°38'0 0.0
2017-Jan-02 02:31N 10°38' W 061°38'0 0.0
2017-Jan-02 01:32N 10°38' W 061°38'0 0.0
2017-Jan-02 00:31N 10°38' W 061°38'0 0.1
2017-Jan-01 23:31N 10°38' W 061°38'0 0.0
2017-Jan-01 22:32N 10°38' W 061°38'0 0.1
2017-Jan-01 21:28N 10°38' W 061°38'0 0.0
2017-Jan-01 20:31N 10°38' W 061°38'0 0.0
2017-Jan-01 19:30N 10°38' W 061°38'0 0.0
2017-Jan-01 18:32N 10°38' W 061°38'  

Dump ship's entire track history